Time;durP1;ratioP1;P1;durP2;ratioP2;P2;SDS_P1;SDS_P2;PMS_P1;PMS_P2;Temp;Humidity;BMP_temperature;BMP_pressure;BME280_temperature;BME280_humidity;BME280_pressure;Samples;Min_cycle;Max_cycle;Signal;HPM_P1;HPM_P2
2021/10/03 00:06:30;;;;;;;17.90;13.50;;;;;;;9.36;67.67;99689.48;473403;1190;141908;-62
2021/10/03 00:16:36;;;;;;;21.40;15.90;;;;;;;9.14;68.60;99690.02;466832;1191;146087;-59
2021/10/03 00:26:44;;;;;;;21.00;15.60;;;;;;;8.95;68.93;99687.04;463199;1192;141214;-60
2021/10/03 00:36:49;;;;;;;26.80;17.60;;;;;;;8.77;69.60;99684.17;477781;1190;142237;-62
2021/10/03 00:46:55;;;;;;;21.50;16.50;;;;;;;8.63;70.03;99668.69;477815;1190;141992;-62
2021/10/03 00:57:01;;;;;;;23.50;17.50;;;;;;;8.52;70.52;99662.51;474884;1190;142581;-61
2021/10/03 01:07:07;;;;;;;22.20;18.00;;;;;;;8.38;71.09;99659.02;473119;1190;142024;-62
2021/10/03 01:17:13;;;;;;;26.90;18.90;;;;;;;8.24;71.60;99651.23;476762;1191;142914;-62
2021/10/03 01:27:20;;;;;;;25.80;18.70;;;;;;;8.12;71.99;99644.72;476820;1190;142404;-62
2021/10/03 01:37:26;;;;;;;25.90;19.50;;;;;;;8.02;72.43;99635.46;471177;1192;141930;-60
2021/10/03 01:47:33;;;;;;;27.90;21.50;;;;;;;7.93;72.81;99630.16;470759;1191;143721;-61
2021/10/03 01:57:40;;;;;;;28.70;20.50;;;;;;;7.81;73.41;99621.19;473709;1188;141455;-62
2021/10/03 02:07:45;;;;;;;30.90;22.10;;;;;;;7.73;73.78;99616.05;470862;1190;142732;-62
2021/10/03 02:17:51;;;;;;;25.90;20.90;;;;;;;7.67;74.02;99620.20;470669;1190;141919;-61
2021/10/03 02:27:58;;;;;;;30.20;24.30;;;;;;;7.63;74.54;99622.46;477415;1191;141846;-61
2021/10/03 02:38:04;;;;;;;30.30;21.70;;;;;;;7.59;74.97;99626.48;477826;1189;141012;-61
2021/10/03 02:48:10;;;;;;;30.00;22.60;;;;;;;7.55;75.18;99624.95;477840;1190;141701;-62
2021/10/03 02:58:17;;;;;;;30.60;23.30;;;;;;;7.50;75.44;99625.39;477462;1191;141502;-62
2021/10/03 03:08:23;;;;;;;31.90;24.00;;;;;;;7.47;75.71;99620.14;472076;1190;143058;-62
2021/10/03 03:18:29;;;;;;;32.70;24.40;;;;;;;7.45;75.96;99614.69;461232;1192;142754;-60
2021/10/03 03:28:34;;;;;;;28.20;23.10;;;;;;;7.41;76.23;99609.82;460716;1191;141575;-60
2021/10/03 03:38:40;;;;;;;31.90;23.40;;;;;;;7.38;76.39;99600.38;476186;1190;141397;-60
2021/10/03 03:48:47;;;;;;;28.20;21.80;;;;;;;7.39;76.57;99595.80;470186;1190;141870;-62
2021/10/03 03:58:53;;;;;;;32.50;24.10;;;;;;;7.40;76.74;99601.36;463053;1190;141341;-60
2021/10/03 04:08:59;;;;;;;28.70;22.90;;;;;;;7.37;76.81;99599.02;460868;1181;141106;-60
2021/10/03 04:19:05;;;;;;;34.40;24.20;;;;;;;7.32;77.06;99606.80;464016;1191;141505;-61
2021/10/03 04:29:11;;;;;;;30.10;23.00;;;;;;;7.25;77.20;99613.55;469504;1192;182846;-60
2021/10/03 04:39:17;;;;;;;28.20;23.70;;;;;;;7.28;77.46;99616.55;477421;1192;194275;-60
2021/10/03 04:49:24;;;;;;;30.10;23.50;;;;;;;7.41;77.41;99615.23;477158;1192;141594;-62
2021/10/03 04:59:30;;;;;;;31.50;24.20;;;;;;;7.49;77.37;99620.94;476534;1191;141334;-61
2021/10/03 05:09:36;;;;;;;32.10;24.40;;;;;;;7.65;77.42;99616.11;476728;1192;141714;-61
2021/10/03 05:19:42;;;;;;;26.70;22.20;;;;;;;7.93;77.36;99610.16;477388;1192;142038;-62
2021/10/03 05:29:48;;;;;;;25.20;21.10;;;;;;;8.28;77.12;99613.49;472072;1191;142251;-62
2021/10/03 05:39:55;;;;;;;27.50;21.20;;;;;;;9.02;76.44;99608.75;466735;1191;142996;-61
2021/10/03 05:50:01;;;;;;;22.50;17.40;;;;;;;10.77;75.02;99603.77;474869;1191;141349;-61
2021/10/03 06:00:10;;;;;;;21.50;17.30;;;;;;;12.19;71.60;99601.06;476871;1190;142463;-62
2021/10/03 06:10:16;;;;;;;17.70;15.90;;;;;;;13.45;70.24;99603.39;477720;1191;141748;-62
2021/10/03 06:20:21;;;;;;;19.60;16.40;;;;;;;15.64;66.06;99606.63;476852;1191;142733;-62
2021/10/03 06:30:28;;;;;;;15.00;13.60;;;;;;;16.91;63.04;99606.44;477676;1191;142596;-63
2021/10/03 06:40:34;;;;;;;16.10;14.10;;;;;;;18.54;60.71;99603.06;477785;1188;143081;-63
2021/10/03 06:50:40;;;;;;;16.70;13.20;;;;;;;22.43;55.66;99603.65;462623;1190;141497;-61
2021/10/03 07:00:46;;;;;;;14.30;13.00;;;;;;;25.26;50.61;99602.27;470580;1190;141924;-62
2021/10/03 07:10:52;;;;;;;12.30;11.20;;;;;;;27.76;46.28;99593.71;472726;1190;140930;-62
2021/10/03 07:20:58;;;;;;;12.20;11.10;;;;;;;29.32;42.35;99593.83;464900;1187;144238;-61
2021/10/03 07:31:05;;;;;;;12.00;11.00;;;;;;;30.35;39.50;99589.94;471733;1190;141301;-62
2021/10/03 07:41:11;;;;;;;10.90;9.90;;;;;;;32.03;36.44;99576.34;476890;1190;140945;-63
2021/10/03 07:51:17;;;;;;;10.10;9.20;;;;;;;33.41;33.94;99575.16;477684;1190;140519;-63
2021/10/03 08:01:23;;;;;;;9.90;8.90;;;;;;;34.50;31.78;99571.17;466739;1190;143690;-62
2021/10/03 08:11:29;;;;;;;9.10;8.30;;;;;;;35.81;29.74;99569.25;460563;1190;142924;-60
2021/10/03 08:21:35;;;;;;;9.60;8.70;;;;;;;36.96;28.21;99565.05;461512;1190;140940;-63
2021/10/03 08:31:41;;;;;;;8.50;7.70;;;;;;;37.46;26.51;99560.65;462993;1190;141187;-62
2021/10/03 08:41:50;;;;;;;8.80;8.10;;;;;;;37.07;25.99;99553.86;460913;1190;142663;-61
2021/10/03 08:51:56;;;;;;;7.50;6.80;;;;;;;37.39;25.29;99547.17;445936;1190;10002095;-61
2021/10/03 09:02:03;;;;;;;7.20;6.60;;;;;;;33.90;25.64;99541.29;460871;1192;141962;-62
2021/10/03 09:23:02;;;;;;;8.30;6.90;;;;;;;23.89;32.80;99530.83;465044;1209;600326;-62
2021/10/03 09:33:08;;;;;;;7.40;6.20;;;;;;;21.97;35.34;99536.54;464306;1195;140380;-61
2021/10/03 09:43:15;;;;;;;6.70;6.10;;;;;;;21.05;37.09;99528.42;458329;1196;144551;-61
2021/10/03 09:53:24;;;;;;;11.20;7.20;;;;;;;20.93;37.86;99520.61;457228;1196;143472;-63
2021/10/03 10:03:30;;;;;;;9.30;7.40;;;;;;;20.32;38.92;99509.73;473340;1193;140843;-65
2021/10/03 10:13:38;;;;;;;6.20;5.40;;;;;;;19.87;39.94;99495.39;461554;1193;140550;-66
2021/10/03 10:23:45;;;;;;;7.40;5.40;;;;;;;19.13;40.43;99478.41;464150;1192;140098;-65
2021/10/03 10:34:08;;;;;;;6.10;5.50;;;;;;;18.82;41.55;99473.15;464517;1192;141727;-64
2021/10/03 10:44:44;;;;;;;8.10;6.60;;;;;;;18.64;41.92;99471.30;462108;1192;139941;-63
2021/10/03 10:55:24;;;;;;;7.00;6.30;;;;;;;18.50;42.28;99460.38;462615;1192;139753;-63
2021/10/03 11:05:50;;;;;;;5.40;5.00;;;;;;;18.39;42.64;99458.09;471974;1178;162669;-62
2021/10/03 11:16:23;;;;;;;7.20;4.90;;;;;;;18.38;43.32;99446.09;476312;1192;140044;-64
2021/10/03 11:26:43;;;;;;;6.10;5.50;;;;;;;18.56;43.59;99439.73;465039;1192;139999;-64
2021/10/03 11:36:53;;;;;;;5.90;4.70;;;;;;;18.60;43.77;99429.09;460425;1192;139808;-63
2021/10/03 11:47:01;;;;;;;6.20;5.40;;;;;;;18.61;44.09;99419.25;466872;1187;139972;-63
2021/10/03 11:57:19;;;;;;;;;;;;;;;18.74;44.20;99416.55;466571;1192;140447;-62
2021/10/03 12:07:27;;;;;;;8.00;5.50;;;;;;;18.76;44.38;99414.36;476625;1192;126891;-63
2021/10/03 12:17:48;;;;;;;6.40;4.90;;;;;;;18.90;44.48;99406.35;475305;1192;139724;-64
2021/10/03 12:28:00;;;;;;;10.70;5.10;;;;;;;19.04;44.38;99398.14;472254;1192;140801;-62
2021/10/03 12:38:06;;;;;;;6.20;5.60;;;;;;;19.14;44.63;99393.19;469209;1186;139698;-64
2021/10/03 12:48:14;;;;;;;7.40;6.00;;;;;;;19.19;44.57;99386.81;465279;1193;140980;-63
2021/10/03 12:58:20;;;;;;;7.90;5.70;;;;;;;19.21;44.52;99376.37;467838;1192;141000;-62
2021/10/03 13:08:26;;;;;;;6.60;5.80;;;;;;;19.22;44.73;99369.13;470108;1192;140572;-62
2021/10/03 13:18:34;;;;;;;5.10;4.60;;;;;;;19.27;44.79;99362.36;466456;1192;140784;-65
2021/10/03 13:28:40;;;;;;;5.50;5.00;;;;;;;19.34;44.85;99361.89;473752;1192;140533;-63
2021/10/03 13:38:48;;;;;;;8.60;7.00;;;;;;;19.35;45.28;99366.95;461426;1193;140434;-63
2021/10/03 13:48:54;;;;;;;9.40;6.40;;;;;;;19.19;45.69;99358.80;470450;1192;139827;-63
2021/10/03 13:59:00;;;;;;;8.70;6.40;;;;;;;19.02;46.05;99360.91;462225;1192;139379;-63
2021/10/03 14:09:06;;;;;;;6.00;5.40;;;;;;;18.87;46.33;99356.36;460053;1195;139854;-63
2021/10/03 14:19:12;;;;;;;7.60;5.30;;;;;;;18.79;46.78;99349.19;465993;1192;139592;-64
2021/10/03 14:29:19;;;;;;;8.90;6.80;;;;;;;18.74;47.27;99351.30;461454;1193;139466;-64
2021/10/03 14:39:24;;;;;;;7.70;6.90;;;;;;;18.59;47.81;99349.95;471479;1192;140244;-65
2021/10/03 14:49:30;;;;;;;6.40;5.70;;;;;;;18.32;48.41;99342.75;471282;1192;140617;-61
2021/10/03 14:59:36;;;;;;;6.30;5.60;;;;;;;18.10;48.94;99350.74;460863;1192;139177;-64
2021/10/03 15:09:42;;;;;;;9.70;6.10;;;;;;;17.89;49.61;99350.30;466188;1193;140390;-63
2021/10/03 15:19:48;;;;;;;9.70;6.50;;;;;;;17.66;50.41;99352.70;476685;1192;141252;-64
2021/10/03 15:29:54;;;;;;;7.90;6.10;;;;;;;17.37;51.10;99365.09;471586;1192;139516;-62
2021/10/03 15:40:00;;;;;;;8.50;7.30;;;;;;;17.02;51.72;99365.28;466345;1193;140845;-63
2021/10/03 15:50:08;;;;;;;8.80;6.70;;;;;;;16.67;52.69;99363.94;462672;1192;140570;-63
2021/10/03 16:00:15;;;;;;;7.30;6.20;;;;;;;16.34;53.60;99363.41;470091;1193;150533;-63
2021/10/03 16:10:21;;;;;;;9.90;7.40;;;;;;;16.04;54.12;99378.13;469297;1192;141047;-62
2021/10/03 16:20:27;;;;;;;8.10;7.20;;;;;;;15.71;54.89;99383.52;460480;1193;140897;-63
2021/10/03 16:30:33;;;;;;;8.80;6.80;;;;;;;15.38;55.71;99392.38;474450;1193;140459;-64
2021/10/03 16:40:39;;;;;;;9.00;8.10;;;;;;;15.12;56.44;99403.64;466663;1192;140553;-64
2021/10/03 16:50:45;;;;;;;10.10;7.60;;;;;;;14.87;57.29;99413.14;462280;1193;140229;-65
2021/10/03 17:00:51;;;;;;;10.10;7.40;;;;;;;14.65;58.05;99417.27;462439;1193;139587;-64
2021/10/03 17:10:59;;;;;;;14.10;8.70;;;;;;;14.45;58.71;99422.55;461265;1192;141080;-66
2021/10/03 17:21:05;;;;;;;12.30;8.80;;;;;;;14.28;59.36;99427.48;461966;1191;140683;-62
2021/10/03 17:31:11;;;;;;;10.20;9.10;;;;;;;14.14;60.05;99423.16;461413;1192;141156;-67
2021/10/03 17:41:18;;;;;;;10.90;9.80;;;;;;;14.02;60.58;99414.95;459626;1193;142001;-64
2021/10/03 17:51:24;;;;;;;9.40;8.30;;;;;;;13.88;61.08;99416.96;467842;1192;140822;-67
2021/10/03 18:01:30;;;;;;;14.40;8.50;;;;;;;13.77;61.48;99415.73;460964;1188;142232;-63
2021/10/03 18:11:36;;;;;;;9.30;7.10;;;;;;;13.66;61.80;99414.65;465226;1192;141437;-67
2021/10/03 18:21:42;;;;;;;8.50;7.50;;;;;;;13.55;62.14;99419.23;468401;1192;141451;-66
2021/10/03 18:31:48;;;;;;;9.90;7.80;;;;;;;13.44;62.68;99425.70;465120;1192;139831;-66
2021/10/03 18:41:54;;;;;;;8.80;7.20;;;;;;;13.29;63.09;99423.52;461875;1192;142628;-64
2021/10/03 18:52:00;;;;;;;9.50;8.60;;;;;;;13.15;63.44;99427.52;463296;1193;141763;-66
2021/10/03 19:02:06;;;;;;;10.10;9.00;;;;;;;13.01;63.96;99441.27;463625;1192;141074;-65
2021/10/03 19:12:13;;;;;;;9.00;7.60;;;;;;;12.85;64.25;99445.64;462358;1192;140576;-65
2021/10/03 19:22:19;;;;;;;11.70;8.60;;;;;;;12.68;64.79;99448.03;461124;1192;141302;-66
2021/10/03 19:32:25;;;;;;;13.60;9.30;;;;;;;12.56;65.30;99444.64;470035;1192;141535;-66
2021/10/03 19:42:30;;;;;;;11.50;8.40;;;;;;;12.42;65.64;99446.35;473422;1192;141997;-66
2021/10/03 19:52:36;;;;;;;13.80;8.40;;;;;;;12.30;66.06;99445.00;470337;1192;140562;-67
2021/10/03 20:02:43;;;;;;;10.10;8.10;;;;;;;12.18;66.38;99446.71;467060;1192;140745;-65
2021/10/03 20:12:51;;;;;;;11.90;8.60;;;;;;;12.07;66.70;99443.68;461404;1192;142631;-66
2021/10/03 20:22:58;;;;;;;11.40;8.30;;;;;;;11.91;67.14;99451.92;460114;1193;141439;-65
2021/10/03 20:33:04;;;;;;;10.20;9.10;;;;;;;11.84;67.42;99453.54;459411;1191;141262;-63
2021/10/03 20:43:10;;;;;;;13.20;8.70;;;;;;;11.79;67.73;99448.63;461073;1192;141241;-65
2021/10/03 20:53:15;;;;;;;10.80;9.20;;;;;;;11.67;67.86;99442.78;459799;1191;142162;-63
2021/10/03 21:03:21;;;;;;;11.30;8.40;;;;;;;11.49;68.18;99447.34;463254;1192;141269;-64
2021/10/03 21:13:29;;;;;;;10.60;8.90;;;;;;;11.35;68.59;99447.48;460496;1192;141119;-64
2021/10/03 21:23:35;;;;;;;12.70;8.40;;;;;;;11.22;68.95;99449.73;459759;1192;140666;-63
2021/10/03 21:33:41;;;;;;;10.00;8.60;;;;;;;11.11;69.14;99451.90;460593;1192;141014;-63
2021/10/03 21:43:47;;;;;;;10.50;8.10;;;;;;;11.03;69.52;99464.02;460730;1192;141675;-62
2021/10/03 21:53:54;;;;;;;15.20;9.60;;;;;;;10.94;69.71;99471.42;459478;1192;140798;-62
2021/10/03 22:04:00;;;;;;;10.50;8.90;;;;;;;10.88;69.94;99469.23;461292;1192;141219;-62
2021/10/03 22:14:06;;;;;;;14.50;9.70;;;;;;;10.82;70.17;99469.06;460957;1192;141450;-62
2021/10/03 22:24:12;;;;;;;10.80;8.90;;;;;;;10.76;70.47;99459.98;460663;1192;141204;-63
2021/10/03 22:34:18;;;;;;;10.10;9.10;;;;;;;10.69;70.65;99459.95;460514;1192;140689;-62
2021/10/03 22:44:24;;;;;;;13.00;10.20;;;;;;;10.63;71.08;99461.35;459133;1193;141976;-64
2021/10/03 22:54:30;;;;;;;10.90;8.50;;;;;;;10.59;71.25;99455.39;460311;1191;141836;-62
2021/10/03 23:04:36;;;;;;;10.70;8.90;;;;;;;10.54;71.36;99454.13;460493;1192;144523;-62
2021/10/03 23:14:42;;;;;;;12.20;9.40;;;;;;;10.47;71.48;99453.15;459840;1192;142395;-62
2021/10/03 23:24:48;;;;;;;14.10;10.00;;;;;;;10.43;71.76;99451.69;460691;1192;141505;-61
2021/10/03 23:34:57;;;;;;;10.30;8.50;;;;;;;10.41;72.00;99453.00;460695;1193;197389;-61
2021/10/03 23:45:03;;;;;;;11.70;8.40;;;;;;;10.38;72.12;99454.27;471463;1191;142185;-64
2021/10/03 23:55:10;;;;;;;13.40;8.50;;;;;;;10.35;72.26;99456.35;467771;1191;140830;-62
